Terminal Aerodrome Forecast
Issued by NWS

Home | Current Version | Previous Version | Text Only | Print | Product List | Glossary On
Versions: 1 2 3 4 5 6 7 8 9 10 11 12 13
000
FTPQ31 PGUM 231743
TAFGUM
TAF

TAF
PTYA 231743Z 2318/2418 29012KT P6SM -RA SCT016 BKN050 OVC100
      TEMPO 2318/2322 5SM SHRA BKN016 OVC030
     FM232200 32014G24KT 6SM RA BKN016 BKN030 OVC080
      TEMPO 2322/2402 2SM +SHRA BKN012 OVC025
     FM240400 33016G28KT P6SM VCSH SCT016 BKN050 OVC100=

USA.gov is the U.S. government's official web portal to all federal, state and local government web resources and services.